sensor_id;sensor_type;location;lat;lon;timestamp;temperature;humidity
62259;DHT22;48241;48.824;10.102;2023-05-18T00:01:07;7.40;92.30
62259;DHT22;48241;48.824;10.102;2023-05-18T00:03:33;7.40;92.40
62259;DHT22;48241;48.824;10.102;2023-05-18T00:05:59;7.40;92.50
62259;DHT22;48241;48.824;10.102;2023-05-18T00:08:32;7.30;92.50
62259;DHT22;48241;48.824;10.102;2023-05-18T00:10:58;7.30;92.50
62259;DHT22;48241;48.824;10.102;2023-05-18T00:13:23;7.20;92.70
62259;DHT22;48241;48.824;10.102;2023-05-18T00:15:49;7.10;93.20
62259;DHT22;48241;48.824;10.102;2023-05-18T00:18:14;7.10;93.50
62259;DHT22;48241;48.824;10.102;2023-05-18T00:20:40;7.00;93.40
62259;DHT22;48241;48.824;10.102;2023-05-18T00:23:06;6.80;93.60
62259;DHT22;48241;48.824;10.102;2023-05-18T00:25:40;6.70;94.30
62259;DHT22;48241;48.824;10.102;2023-05-18T00:28:06;6.70;94.30
62259;DHT22;48241;48.824;10.102;2023-05-18T00:30:32;6.70;94.60
62259;DHT22;48241;48.824;10.102;2023-05-18T00:32:57;6.70;94.80
62259;DHT22;48241;48.824;10.102;2023-05-18T00:35:23;6.60;95.20
62259;DHT22;48241;48.824;10.102;2023-05-18T00:37:49;6.70;95.50
62259;DHT22;48241;48.824;10.102;2023-05-18T00:40:14;6.80;94.90
62259;DHT22;48241;48.824;10.102;2023-05-18T00:42:40;6.70;94.40
62259;DHT22;48241;48.824;10.102;2023-05-18T00:45:06;6.60;94.30
62259;DHT22;48241;48.824;10.102;2023-05-18T00:47:32;6.50;94.90
62259;DHT22;48241;48.824;10.102;2023-05-18T00:49:57;6.50;94.50
62259;DHT22;48241;48.824;10.102;2023-05-18T00:52:23;6.60;94.70
62259;DHT22;48241;48.824;10.102;2023-05-18T00:54:49;6.60;94.80
62259;DHT22;48241;48.824;10.102;2023-05-18T00:57:15;6.40;95.50
62259;DHT22;48241;48.824;10.102;2023-05-18T00:59:44;6.30;95.40
62259;DHT22;48241;48.824;10.102;2023-05-18T01:02:10;6.30;95.70
62259;DHT22;48241;48.824;10.102;2023-05-18T01:04:36;6.30;95.70
62259;DHT22;48241;48.824;10.102;2023-05-18T01:09:37;6.40;96.30
62259;DHT22;48241;48.824;10.102;2023-05-18T01:15:15;6.30;95.60
62259;DHT22;48241;48.824;10.102;2023-05-18T01:18:18;6.20;96.00
62259;DHT22;48241;48.824;10.102;2023-05-18T01:20:49;6.30;96.00
62259;DHT22;48241;48.824;10.102;2023-05-18T01:26:16;6.20;95.60
62259;DHT22;48241;48.824;10.102;2023-05-18T01:28:45;6.30;95.60
62259;DHT22;48241;48.824;10.102;2023-05-18T01:31:13;6.20;95.70
62259;DHT22;48241;48.824;10.102;2023-05-18T01:33:40;6.20;95.30
62259;DHT22;48241;48.824;10.102;2023-05-18T01:36:06;6.20;95.60
62259;DHT22;48241;48.824;10.102;2023-05-18T01:38:32;6.20;95.30
62259;DHT22;48241;48.824;10.102;2023-05-18T01:40:59;6.10;95.40
62259;DHT22;48241;48.824;10.102;2023-05-18T01:43:32;6.00;95.90
62259;DHT22;48241;48.824;10.102;2023-05-18T01:46:24;6.00;96.10
62259;DHT22;48241;48.824;10.102;2023-05-18T01:48:55;6.10;95.80
62259;DHT22;48241;48.824;10.102;2023-05-18T01:51:24;6.00;95.70
62259;DHT22;48241;48.824;10.102;2023-05-18T01:53:58;6.00;95.70
62259;DHT22;48241;48.824;10.102;2023-05-18T01:56:25;6.00;96.10
62259;DHT22;48241;48.824;10.102;2023-05-18T01:58:52;5.90;96.10
62259;DHT22;48241;48.824;10.102;2023-05-18T02:01:17;5.90;96.20
62259;DHT22;48241;48.824;10.102;2023-05-18T02:03:44;6.60;96.10
62259;DHT22;48241;48.824;10.102;2023-05-18T02:06:10;6.10;96.00
62259;DHT22;48241;48.824;10.102;2023-05-18T02:11:11;6.00;96.30
62259;DHT22;48241;48.824;10.102;2023-05-18T02:13:36;5.90;96.70
62259;DHT22;48241;48.824;10.102;2023-05-18T02:16:02;6.00;96.70
62259;DHT22;48241;48.824;10.102;2023-05-18T02:18:28;6.80;97.00
62259;DHT22;48241;48.824;10.102;2023-05-18T02:20:58;6.00;96.90
62259;DHT22;48241;48.824;10.102;2023-05-18T02:23:25;5.90;96.60
62259;DHT22;48241;48.824;10.102;2023-05-18T02:25:51;5.90;96.60
62259;DHT22;48241;48.824;10.102;2023-05-18T02:28:20;5.90;96.30
62259;DHT22;48241;48.824;10.102;2023-05-18T02:30:45;6.10;96.20
62259;DHT22;48241;48.824;10.102;2023-05-18T02:33:11;6.10;95.80
62259;DHT22;48241;48.824;10.102;2023-05-18T02:35:37;6.10;95.90
62259;DHT22;48241;48.824;10.102;2023-05-18T02:38:02;6.10;96.00
62259;DHT22;48241;48.824;10.102;2023-05-18T02:40:28;6.10;96.10
62259;DHT22;48241;48.824;10.102;2023-05-18T02:42:54;5.80;96.60
62259;DHT22;48241;48.824;10.102;2023-05-18T02:45:19;5.90;96.70
62259;DHT22;48241;48.824;10.102;2023-05-18T02:47:46;6.00;96.30
62259;DHT22;48241;48.824;10.102;2023-05-18T02:50:12;6.00;95.90
62259;DHT22;48241;48.824;10.102;2023-05-18T02:52:37;6.00;96.00
62259;DHT22;48241;48.824;10.102;2023-05-18T02:55:04;5.90;96.00
62259;DHT22;48241;48.824;10.102;2023-05-18T02:57:30;6.00;96.30
62259;DHT22;48241;48.824;10.102;2023-05-18T02:59:57;5.80;96.20
62259;DHT22;48241;48.824;10.102;2023-05-18T03:02:22;5.90;96.50
62259;DHT22;48241;48.824;10.102;2023-05-18T03:04:48;5.90;96.20
62259;DHT22;48241;48.824;10.102;2023-05-18T03:07:22;5.70;96.60
62259;DHT22;48241;48.824;10.102;2023-05-18T03:09:47;5.80;96.70
62259;DHT22;48241;48.824;10.102;2023-05-18T03:12:13;5.60;96.80
62259;DHT22;48241;48.824;10.102;2023-05-18T03:14:38;5.80;96.60
62259;DHT22;48241;48.824;10.102;2023-05-18T03:17:04;5.70;96.40
62259;DHT22;48241;48.824;10.102;2023-05-18T03:19:31;5.80;96.90
62259;DHT22;48241;48.824;10.102;2023-05-18T03:21:57;5.70;96.50
62259;DHT22;48241;48.824;10.102;2023-05-18T03:24:22;5.70;96.60
62259;DHT22;48241;48.824;10.102;2023-05-18T03:26:51;5.50;97.20
62259;DHT22;48241;48.824;10.102;2023-05-18T03:29:19;5.60;97.00
62259;DHT22;48241;48.824;10.102;2023-05-18T03:31:45;5.80;96.80
62259;DHT22;48241;48.824;10.102;2023-05-18T03:34:11;5.80;96.70
62259;DHT22;48241;48.824;10.102;2023-05-18T03:36:36;5.90;96.50
62259;DHT22;48241;48.824;10.102;2023-05-18T03:39:03;5.90;96.50
62259;DHT22;48241;48.824;10.102;2023-05-18T03:41:30;5.90;96.90
62259;DHT22;48241;48.824;10.102;2023-05-18T03:43:56;5.90;96.20
62259;DHT22;48241;48.824;10.102;2023-05-18T03:46:22;6.00;96.60
62259;DHT22;48241;48.824;10.102;2023-05-18T03:48:47;6.10;96.50
62259;DHT22;48241;48.824;10.102;2023-05-18T03:51:13;6.10;96.40
62259;DHT22;48241;48.824;10.102;2023-05-18T03:53:39;6.20;96.50
62259;DHT22;48241;48.824;10.102;2023-05-18T03:56:05;6.20;96.10
62259;DHT22;48241;48.824;10.102;2023-05-18T03:58:31;7.00;95.90
62259;DHT22;48241;48.824;10.102;2023-05-18T04:00:56;6.20;95.50
62259;DHT22;48241;48.824;10.102;2023-05-18T04:03:22;6.20;96.10
62259;DHT22;48241;48.824;10.102;2023-05-18T04:05:50;6.30;96.20
62259;DHT22;48241;48.824;10.102;2023-05-18T04:08:15;6.40;95.90
62259;DHT22;48241;48.824;10.102;2023-05-18T04:10:42;6.70;96.20
62259;DHT22;48241;48.824;10.102;2023-05-18T04:13:08;6.60;95.60
62259;DHT22;48241;48.824;10.102;2023-05-18T04:15:33;6.70;95.00
62259;DHT22;48241;48.824;10.102;2023-05-18T04:17:59;6.90;95.30
62259;DHT22;48241;48.824;10.102;2023-05-18T04:20:26;6.90;95.00
62259;DHT22;48241;48.824;10.102;2023-05-18T04:22:52;7.00;94.80
62259;DHT22;48241;48.824;10.102;2023-05-18T04:25:18;7.10;94.90
62259;DHT22;48241;48.824;10.102;2023-05-18T04:27:44;7.30;94.20
62259;DHT22;48241;48.824;10.102;2023-05-18T04:30:10;7.20;94.90
62259;DHT22;48241;48.824;10.102;2023-05-18T04:32:37;7.60;94.60
62259;DHT22;48241;48.824;10.102;2023-05-18T04:35:06;7.80;93.80
62259;DHT22;48241;48.824;10.102;2023-05-18T04:37:35;8.00;93.30
62259;DHT22;48241;48.824;10.102;2023-05-18T04:40:05;8.60;96.30
62259;DHT22;48241;48.824;10.102;2023-05-18T04:42:32;9.80;94.10
62259;DHT22;48241;48.824;10.102;2023-05-18T04:44:59;11.10;92.00
62259;DHT22;48241;48.824;10.102;2023-05-18T04:47:25;12.90;89.20
62259;DHT22;48241;48.824;10.102;2023-05-18T04:49:51;14.90;80.70
62259;DHT22;48241;48.824;10.102;2023-05-18T04:52:17;15.90;66.40
62259;DHT22;48241;48.824;10.102;2023-05-18T04:54:43;17.00;70.40
62259;DHT22;48241;48.824;10.102;2023-05-18T04:57:09;17.80;58.80
62259;DHT22;48241;48.824;10.102;2023-05-18T04:59:35;19.00;54.60
62259;DHT22;48241;48.824;10.102;2023-05-18T05:02:02;20.30;52.80
62259;DHT22;48241;48.824;10.102;2023-05-18T05:04:27;21.80;49.20
62259;DHT22;48241;48.824;10.102;2023-05-18T05:09:28;23.90;44.00
62259;DHT22;48241;48.824;10.102;2023-05-18T05:11:54;24.60;40.90
62259;DHT22;48241;48.824;10.102;2023-05-18T05:14:20;25.20;40.20
62259;DHT22;48241;48.824;10.102;2023-05-18T05:16:46;25.60;38.80
62259;DHT22;48241;48.824;10.102;2023-05-18T05:19:11;25.90;38.20
62259;DHT22;48241;48.824;10.102;2023-05-18T05:21:37;26.20;37.50
62259;DHT22;48241;48.824;10.102;2023-05-18T05:24:03;26.70;37.20
62259;DHT22;48241;48.824;10.102;2023-05-18T05:26:30;27.20;35.90
62259;DHT22;48241;48.824;10.102;2023-05-18T05:28:56;27.80;35.40
62259;DHT22;48241;48.824;10.102;2023-05-18T05:31:21;27.70;34.70
62259;DHT22;48241;48.824;10.102;2023-05-18T05:33:47;27.90;34.70
62259;DHT22;48241;48.824;10.102;2023-05-18T05:36:12;28.70;34.20
62259;DHT22;48241;48.824;10.102;2023-05-18T05:38:38;29.20;33.20
62259;DHT22;48241;48.824;10.102;2023-05-18T05:41:03;29.10;31.70
62259;DHT22;48241;48.824;10.102;2023-05-18T05:43:29;29.70;31.20
62259;DHT22;48241;48.824;10.102;2023-05-18T05:45:55;29.70;30.90
62259;DHT22;48241;48.824;10.102;2023-05-18T05:48:20;30.20;31.80
62259;DHT22;48241;48.824;10.102;2023-05-18T05:50:46;29.70;29.90
62259;DHT22;48241;48.824;10.102;2023-05-18T05:53:11;28.70;29.80
62259;DHT22;48241;48.824;10.102;2023-05-18T05:55:37;27.50;30.80
62259;DHT22;48241;48.824;10.102;2023-05-18T05:58:06;25.80;32.80
62259;DHT22;48241;48.824;10.102;2023-05-18T06:00:32;24.20;33.40
62259;DHT22;48241;48.824;10.102;2023-05-18T06:02:57;23.10;35.40
62259;DHT22;48241;48.824;10.102;2023-05-18T06:05:23;22.70;36.50
62259;DHT22;48241;48.824;10.102;2023-05-18T06:07:49;22.20;37.00
62259;DHT22;48241;48.824;10.102;2023-05-18T06:10:14;22.50;36.90
62259;DHT22;48241;48.824;10.102;2023-05-18T06:12:40;21.90;37.70
62259;DHT22;48241;48.824;10.102;2023-05-18T06:15:06;21.20;37.10
62259;DHT22;48241;48.824;10.102;2023-05-18T06:17:32;19.60;40.30
62259;DHT22;48241;48.824;10.102;2023-05-18T06:19:58;20.20;39.30
62259;DHT22;48241;48.824;10.102;2023-05-18T06:22:23;20.50;38.30
62259;DHT22;48241;48.824;10.102;2023-05-18T06:24:49;21.50;38.00
62259;DHT22;48241;48.824;10.102;2023-05-18T06:27:15;21.10;38.00
62259;DHT22;48241;48.824;10.102;2023-05-18T06:29:41;20.70;38.10
62259;DHT22;48241;48.824;10.102;2023-05-18T06:32:07;20.70;38.80
62259;DHT22;48241;48.824;10.102;2023-05-18T06:34:32;20.70;38.20
62259;DHT22;48241;48.824;10.102;2023-05-18T06:36:58;21.20;37.80
62259;DHT22;48241;48.824;10.102;2023-05-18T06:39:24;20.60;39.20
62259;DHT22;48241;48.824;10.102;2023-05-18T06:41:49;20.40;38.60
62259;DHT22;48241;48.824;10.102;2023-05-18T06:44:16;20.50;39.30
62259;DHT22;48241;48.824;10.102;2023-05-18T06:46:42;21.00;38.90
62259;DHT22;48241;48.824;10.102;2023-05-18T06:49:07;20.90;39.30
62259;DHT22;48241;48.824;10.102;2023-05-18T06:51:33;21.90;38.20
62259;DHT22;48241;48.824;10.102;2023-05-18T06:53:58;22.80;36.70
62259;DHT22;48241;48.824;10.102;2023-05-18T06:56:24;23.30;35.80
62259;DHT22;48241;48.824;10.102;2023-05-18T06:58:50;22.40;36.10
62259;DHT22;48241;48.824;10.102;2023-05-18T07:01:15;22.90;36.90
62259;DHT22;48241;48.824;10.102;2023-05-18T07:03:43;23.00;36.50
62259;DHT22;48241;48.824;10.102;2023-05-18T07:06:09;22.90;36.80
62259;DHT22;48241;48.824;10.102;2023-05-18T07:08:35;23.00;36.80
62259;DHT22;48241;48.824;10.102;2023-05-18T07:11:03;23.00;35.40
62259;DHT22;48241;48.824;10.102;2023-05-18T07:13:29;22.40;36.30
62259;DHT22;48241;48.824;10.102;2023-05-18T07:15:55;22.60;36.60
62259;DHT22;48241;48.824;10.102;2023-05-18T07:18:21;22.10;36.50
62259;DHT22;48241;48.824;10.102;2023-05-18T07:20:46;22.20;36.90
62259;DHT22;48241;48.824;10.102;2023-05-18T07:23:12;22.10;37.70
62259;DHT22;48241;48.824;10.102;2023-05-18T07:25:38;22.40;36.50
62259;DHT22;48241;48.824;10.102;2023-05-18T07:28:04;23.10;36.40
62259;DHT22;48241;48.824;10.102;2023-05-18T07:30:29;23.50;36.40
62259;DHT22;48241;48.824;10.102;2023-05-18T07:32:55;23.90;34.70
62259;DHT22;48241;48.824;10.102;2023-05-18T07:35:21;24.50;34.70
62259;DHT22;48241;48.824;10.102;2023-05-18T07:37:48;24.20;34.20
62259;DHT22;48241;48.824;10.102;2023-05-18T07:40:13;23.90;34.90
62259;DHT22;48241;48.824;10.102;2023-05-18T07:42:39;24.50;34.90
62259;DHT22;48241;48.824;10.102;2023-05-18T07:45:06;25.60;35.20
62259;DHT22;48241;48.824;10.102;2023-05-18T07:47:32;25.50;33.40
62259;DHT22;48241;48.824;10.102;2023-05-18T07:49:58;26.60;32.80
62259;DHT22;48241;48.824;10.102;2023-05-18T07:52:24;27.40;32.00
62259;DHT22;48241;48.824;10.102;2023-05-18T07:54:49;28.60;30.70
62259;DHT22;48241;48.824;10.102;2023-05-18T07:57:15;27.20;31.10
62259;DHT22;48241;48.824;10.102;2023-05-18T07:59:41;26.50;32.70
62259;DHT22;48241;48.824;10.102;2023-05-18T08:02:07;25.10;32.90
62259;DHT22;48241;48.824;10.102;2023-05-18T08:04:32;25.10;33.90
62259;DHT22;48241;48.824;10.102;2023-05-18T08:06:58;24.60;32.60
62259;DHT22;48241;48.824;10.102;2023-05-18T08:09:25;23.90;35.10
62259;DHT22;48241;48.824;10.102;2023-05-18T08:11:51;23.30;34.50
62259;DHT22;48241;48.824;10.102;2023-05-18T08:14:18;21.00;38.40
62259;DHT22;48241;48.824;10.102;2023-05-18T08:16:43;20.40;39.60
62259;DHT22;48241;48.824;10.102;2023-05-18T08:19:09;21.20;38.20
62259;DHT22;48241;48.824;10.102;2023-05-18T08:21:35;21.90;38.50
62259;DHT22;48241;48.824;10.102;2023-05-18T08:24:02;21.80;38.40
62259;DHT22;48241;48.824;10.102;2023-05-18T08:26:27;22.20;36.90
62259;DHT22;48241;48.824;10.102;2023-05-18T08:28:53;21.90;38.80
62259;DHT22;48241;48.824;10.102;2023-05-18T08:31:19;22.20;37.60
62259;DHT22;48241;48.824;10.102;2023-05-18T08:33:45;23.00;37.30
62259;DHT22;48241;48.824;10.102;2023-05-18T08:36:11;22.40;36.80
62259;DHT22;48241;48.824;10.102;2023-05-18T08:38:37;22.30;36.90
62259;DHT22;48241;48.824;10.102;2023-05-18T08:41:11;23.50;37.10
62259;DHT22;48241;48.824;10.102;2023-05-18T08:43:41;23.50;35.80
62259;DHT22;48241;48.824;10.102;2023-05-18T08:46:17;22.50;35.90
62259;DHT22;48241;48.824;10.102;2023-05-18T08:48:44;21.90;37.60
62259;DHT22;48241;48.824;10.102;2023-05-18T08:51:11;22.10;38.30
62259;DHT22;48241;48.824;10.102;2023-05-18T08:53:39;22.50;37.60
62259;DHT22;48241;48.824;10.102;2023-05-18T08:56:05;21.80;37.60
62259;DHT22;48241;48.824;10.102;2023-05-18T08:58:35;20.40;39.40
62259;DHT22;48241;48.824;10.102;2023-05-18T09:01:01;20.20;40.20
62259;DHT22;48241;48.824;10.102;2023-05-18T09:03:28;20.20;39.80
62259;DHT22;48241;48.824;10.102;2023-05-18T09:05:54;20.20;40.00
62259;DHT22;48241;48.824;10.102;2023-05-18T09:08:21;20.40;39.00
62259;DHT22;48241;48.824;10.102;2023-05-18T09:10:47;20.50;39.90
62259;DHT22;48241;48.824;10.102;2023-05-18T09:13:15;21.20;39.30
62259;DHT22;48241;48.824;10.102;2023-05-18T09:15:42;21.20;40.00
62259;DHT22;48241;48.824;10.102;2023-05-18T09:18:08;23.10;37.00
62259;DHT22;48241;48.824;10.102;2023-05-18T09:20:34;22.10;37.10
62259;DHT22;48241;48.824;10.102;2023-05-18T09:22:59;20.80;38.60
62259;DHT22;48241;48.824;10.102;2023-05-18T09:25:26;21.30;39.20
62259;DHT22;48241;48.824;10.102;2023-05-18T09:27:51;21.60;37.30
62259;DHT22;48241;48.824;10.102;2023-05-18T09:30:17;22.10;37.20
62259;DHT22;48241;48.824;10.102;2023-05-18T09:32:45;22.40;36.90
62259;DHT22;48241;48.824;10.102;2023-05-18T09:35:11;23.20;35.10
62259;DHT22;48241;48.824;10.102;2023-05-18T09:37:40;23.00;35.30
62259;DHT22;48241;48.824;10.102;2023-05-18T09:40:06;21.80;36.00
62259;DHT22;48241;48.824;10.102;2023-05-18T09:42:40;21.50;37.90
62259;DHT22;48241;48.824;10.102;2023-05-18T09:45:16;20.70;39.20
62259;DHT22;48241;48.824;10.102;2023-05-18T09:47:43;21.50;39.50
62259;DHT22;48241;48.824;10.102;2023-05-18T09:50:08;21.90;37.70
62259;DHT22;48241;48.824;10.102;2023-05-18T09:52:42;22.30;36.30
62259;DHT22;48241;48.824;10.102;2023-05-18T09:55:09;22.80;36.50
62259;DHT22;48241;48.824;10.102;2023-05-18T09:57:47;21.50;37.10
62259;DHT22;48241;48.824;10.102;2023-05-18T10:00:14;22.10;37.10
62259;DHT22;48241;48.824;10.102;2023-05-18T10:02:45;21.90;36.90
62259;DHT22;48241;48.824;10.102;2023-05-18T10:05:25;20.90;38.50
62259;DHT22;48241;48.824;10.102;2023-05-18T10:08:00;21.20;38.80
62259;DHT22;48241;48.824;10.102;2023-05-18T10:10:27;22.80;37.30
62259;DHT22;48241;48.824;10.102;2023-05-18T10:12:55;24.50;35.10
62259;DHT22;48241;48.824;10.102;2023-05-18T10:15:23;24.90;34.40
62259;DHT22;48241;48.824;10.102;2023-05-18T10:17:52;23.80;35.70
62259;DHT22;48241;48.824;10.102;2023-05-18T10:20:21;23.50;36.40
62259;DHT22;48241;48.824;10.102;2023-05-18T10:22:51;23.20;37.10
62259;DHT22;48241;48.824;10.102;2023-05-18T10:25:21;22.90;36.80
62259;DHT22;48241;48.824;10.102;2023-05-18T10:27:48;21.70;37.50
62259;DHT22;48241;48.824;10.102;2023-05-18T10:30:14;21.10;38.50
62259;DHT22;48241;48.824;10.102;2023-05-18T10:32:42;20.20;40.00
62259;DHT22;48241;48.824;10.102;2023-05-18T10:35:09;19.20;42.40
62259;DHT22;48241;48.824;10.102;2023-05-18T10:37:38;18.10;44.60
62259;DHT22;48241;48.824;10.102;2023-05-18T10:40:06;17.60;45.80
62259;DHT22;48241;48.824;10.102;2023-05-18T10:42:33;17.40;46.20
62259;DHT22;48241;48.824;10.102;2023-05-18T10:44:59;17.50;45.20
62259;DHT22;48241;48.824;10.102;2023-05-18T10:47:29;17.70;44.60
62259;DHT22;48241;48.824;10.102;2023-05-18T10:49:58;17.90;44.80
62259;DHT22;48241;48.824;10.102;2023-05-18T10:52:24;17.30;44.10
62259;DHT22;48241;48.824;10.102;2023-05-18T10:54:57;17.10;44.50
62259;DHT22;48241;48.824;10.102;2023-05-18T10:57:27;17.70;44.70
62259;DHT22;48241;48.824;10.102;2023-05-18T10:59:56;17.00;44.70
62259;DHT22;48241;48.824;10.102;2023-05-18T11:02:23;17.30;45.30
62259;DHT22;48241;48.824;10.102;2023-05-18T11:04:48;17.20;45.70
62259;DHT22;48241;48.824;10.102;2023-05-18T11:07:14;17.60;45.20
62259;DHT22;48241;48.824;10.102;2023-05-18T11:09:41;17.30;43.80
62259;DHT22;48241;48.824;10.102;2023-05-18T11:12:17;17.30;43.00
62259;DHT22;48241;48.824;10.102;2023-05-18T11:14:50;17.20;43.50
62259;DHT22;48241;48.824;10.102;2023-05-18T11:17:20;17.20;45.00
62259;DHT22;48241;48.824;10.102;2023-05-18T11:27:58;17.60;42.70
62259;DHT22;48241;48.824;10.102;2023-05-18T11:30:29;18.00;44.90
62259;DHT22;48241;48.824;10.102;2023-05-18T11:33:12;17.90;43.10
62259;DHT22;48241;48.824;10.102;2023-05-18T11:35:56;17.50;44.70
62259;DHT22;48241;48.824;10.102;2023-05-18T11:38:22;17.90;44.30
62259;DHT22;48241;48.824;10.102;2023-05-18T11:40:52;18.10;43.60
62259;DHT22;48241;48.824;10.102;2023-05-18T11:43:22;18.30;44.00
62259;DHT22;48241;48.824;10.102;2023-05-18T11:48:20;18.30;42.40
62259;DHT22;48241;48.824;10.102;2023-05-18T11:50:45;18.20;43.30
62259;DHT22;48241;48.824;10.102;2023-05-18T11:53:14;18.00;44.90
62259;DHT22;48241;48.824;10.102;2023-05-18T11:55:41;17.90;44.30
62259;DHT22;48241;48.824;10.102;2023-05-18T11:58:08;17.90;44.90
62259;DHT22;48241;48.824;10.102;2023-05-18T12:00:35;18.80;44.30
62259;DHT22;48241;48.824;10.102;2023-05-18T12:03:01;17.90;43.70
62259;DHT22;48241;48.824;10.102;2023-05-18T12:05:31;17.50;44.20
62259;DHT22;48241;48.824;10.102;2023-05-18T12:07:59;17.60;44.80
62259;DHT22;48241;48.824;10.102;2023-05-18T12:10:25;17.80;44.50
62259;DHT22;48241;48.824;10.102;2023-05-18T12:12:51;17.80;44.80
62259;DHT22;48241;48.824;10.102;2023-05-18T12:15:20;18.30;43.30
62259;DHT22;48241;48.824;10.102;2023-05-18T12:17:50;18.00;42.90
62259;DHT22;48241;48.824;10.102;2023-05-18T12:20:21;18.00;43.90
62259;DHT22;48241;48.824;10.102;2023-05-18T12:22:49;18.80;44.20
62259;DHT22;48241;48.824;10.102;2023-05-18T12:25:16;19.00;43.20
62259;DHT22;48241;48.824;10.102;2023-05-18T12:27:42;19.00;42.60
62259;DHT22;48241;48.824;10.102;2023-05-18T12:32:49;18.80;42.60
62259;DHT22;48241;48.824;10.102;2023-05-18T12:35:16;19.10;42.30
62259;DHT22;48241;48.824;10.102;2023-05-18T12:37:45;18.70;42.90
62259;DHT22;48241;48.824;10.102;2023-05-18T12:40:13;18.40;43.10
62259;DHT22;48241;48.824;10.102;2023-05-18T12:42:39;18.80;43.30
62259;DHT22;48241;48.824;10.102;2023-05-18T12:45:05;19.20;43.00
62259;DHT22;48241;48.824;10.102;2023-05-18T12:47:32;19.10;43.00
62259;DHT22;48241;48.824;10.102;2023-05-18T12:50:05;19.30;43.10
62259;DHT22;48241;48.824;10.102;2023-05-18T12:52:31;19.80;41.70
62259;DHT22;48241;48.824;10.102;2023-05-18T12:54:56;19.60;41.50
62259;DHT22;48241;48.824;10.102;2023-05-18T12:57:26;19.30;42.90
62259;DHT22;48241;48.824;10.102;2023-05-18T12:59:57;18.80;43.30
62259;DHT22;48241;48.824;10.102;2023-05-18T13:02:35;18.80;43.50
62259;DHT22;48241;48.824;10.102;2023-05-18T13:05:10;18.70;43.50
62259;DHT22;48241;48.824;10.102;2023-05-18T13:07:43;18.80;42.90
62259;DHT22;48241;48.824;10.102;2023-05-18T13:10:10;18.70;43.50
62259;DHT22;48241;48.824;10.102;2023-05-18T13:12:46;18.20;44.00
62259;DHT22;48241;48.824;10.102;2023-05-18T13:15:21;18.20;44.80
62259;DHT22;48241;48.824;10.102;2023-05-18T13:18:04;18.40;44.40
62259;DHT22;48241;48.824;10.102;2023-05-18T13:20:34;18.20;45.00
62259;DHT22;48241;48.824;10.102;2023-05-18T13:23:04;18.00;43.90
62259;DHT22;48241;48.824;10.102;2023-05-18T13:25:31;18.10;44.20
62259;DHT22;48241;48.824;10.102;2023-05-18T13:27:57;18.60;45.30
62259;DHT22;48241;48.824;10.102;2023-05-18T13:30:23;18.50;44.40
62259;DHT22;48241;48.824;10.102;2023-05-18T13:32:49;18.00;45.40
62259;DHT22;48241;48.824;10.102;2023-05-18T13:35:16;18.00;44.60
62259;DHT22;48241;48.824;10.102;2023-05-18T13:37:43;18.00;44.30
62259;DHT22;48241;48.824;10.102;2023-05-18T13:40:10;18.00;44.80
62259;DHT22;48241;48.824;10.102;2023-05-18T13:42:35;18.40;45.10
62259;DHT22;48241;48.824;10.102;2023-05-18T13:45:01;18.40;44.30
62259;DHT22;48241;48.824;10.102;2023-05-18T13:47:26;18.00;44.20
62259;DHT22;48241;48.824;10.102;2023-05-18T13:49:52;18.40;44.30
62259;DHT22;48241;48.824;10.102;2023-05-18T13:52:17;18.50;44.20
62259;DHT22;48241;48.824;10.102;2023-05-18T13:54:43;18.70;44.10
62259;DHT22;48241;48.824;10.102;2023-05-18T13:57:09;18.90;43.30
62259;DHT22;48241;48.824;10.102;2023-05-18T13:59:34;19.20;43.10
62259;DHT22;48241;48.824;10.102;2023-05-18T14:02:00;18.90;43.20
62259;DHT22;48241;48.824;10.102;2023-05-18T14:04:26;18.70;43.60
62259;DHT22;48241;48.824;10.102;2023-05-18T14:06:51;18.90;43.10
62259;DHT22;48241;48.824;10.102;2023-05-18T14:09:18;18.80;42.60
62259;DHT22;48241;48.824;10.102;2023-05-18T14:11:44;18.20;44.10
62259;DHT22;48241;48.824;10.102;2023-05-18T14:14:09;18.30;43.90
62259;DHT22;48241;48.824;10.102;2023-05-18T14:16:35;18.20;43.70
62259;DHT22;48241;48.824;10.102;2023-05-18T14:19:01;18.60;42.70
62259;DHT22;48241;48.824;10.102;2023-05-18T14:21:27;18.80;42.80
62259;DHT22;48241;48.824;10.102;2023-05-18T14:23:53;19.00;42.40
62259;DHT22;48241;48.824;10.102;2023-05-18T14:26:18;19.10;42.60
62259;DHT22;48241;48.824;10.102;2023-05-18T14:28:44;19.20;42.40
62259;DHT22;48241;48.824;10.102;2023-05-18T14:31:10;18.80;43.20
62259;DHT22;48241;48.824;10.102;2023-05-18T14:33:36;18.70;43.70
62259;DHT22;48241;48.824;10.102;2023-05-18T14:36:01;18.90;43.80
62259;DHT22;48241;48.824;10.102;2023-05-18T14:38:27;18.90;44.10
62259;DHT22;48241;48.824;10.102;2023-05-18T14:40:53;18.90;42.20
62259;DHT22;48241;48.824;10.102;2023-05-18T14:43:18;18.50;42.40
62259;DHT22;48241;48.824;10.102;2023-05-18T14:45:44;18.20;42.90
62259;DHT22;48241;48.824;10.102;2023-05-18T14:48:09;18.40;43.30
62259;DHT22;48241;48.824;10.102;2023-05-18T14:50:36;18.50;42.90
62259;DHT22;48241;48.824;10.102;2023-05-18T14:53:01;18.60;42.30
62259;DHT22;48241;48.824;10.102;2023-05-18T14:55:27;18.40;42.40
62259;DHT22;48241;48.824;10.102;2023-05-18T14:57:52;18.40;43.10
62259;DHT22;48241;48.824;10.102;2023-05-18T15:00:19;18.10;43.30
62259;DHT22;48241;48.824;10.102;2023-05-18T15:02:45;18.10;43.60
62259;DHT22;48241;48.824;10.102;2023-05-18T15:05:10;18.30;43.90
62259;DHT22;48241;48.824;10.102;2023-05-18T15:07:36;18.40;44.40
62259;DHT22;48241;48.824;10.102;2023-05-18T15:10:02;18.70;42.40
62259;DHT22;48241;48.824;10.102;2023-05-18T15:12:28;18.70;42.10
62259;DHT22;48241;48.824;10.102;2023-05-18T15:14:54;19.30;41.90
62259;DHT22;48241;48.824;10.102;2023-05-18T15:17:19;19.90;44.00
62259;DHT22;48241;48.824;10.102;2023-05-18T15:19:45;18.60;43.70
62259;DHT22;48241;48.824;10.102;2023-05-18T15:22:11;19.50;43.30
62259;DHT22;48241;48.824;10.102;2023-05-18T15:24:37;18.80;43.10
62259;DHT22;48241;48.824;10.102;2023-05-18T15:27:02;18.10;43.60
62259;DHT22;48241;48.824;10.102;2023-05-18T15:29:28;18.10;42.90
62259;DHT22;48241;48.824;10.102;2023-05-18T15:31:54;18.80;43.90
62259;DHT22;48241;48.824;10.102;2023-05-18T15:34:20;19.10;42.70
62259;DHT22;48241;48.824;10.102;2023-05-18T15:36:46;19.40;42.80
62259;DHT22;48241;48.824;10.102;2023-05-18T15:39:12;18.60;43.20
62259;DHT22;48241;48.824;10.102;2023-05-18T15:41:37;18.90;44.30
62259;DHT22;48241;48.824;10.102;2023-05-18T15:44:03;17.00;44.10
62259;DHT22;48241;48.824;10.102;2023-05-18T15:46:29;17.30;45.70